sensor_id;sensor_type;location;lat;lon;timestamp;P1;durP1;ratioP1;P2;durP2;ratioP2
62479;SDS011;48526;48.846;2.322;2023-05-10T00:00:34;0.50;;;0.50;;
62479;SDS011;48526;48.846;2.322;2023-05-10T00:03:00;1.00;;;1.00;;
62479;SDS011;48526;48.846;2.322;2023-05-10T00:05:25;1.00;;;1.00;;
62479;SDS011;48526;48.846;2.322;2023-05-10T00:07:51;1.00;;;1.00;;
62479;SDS011;48526;48.846;2.322;2023-05-10T00:10:16;1.50;;;1.00;;
62479;SDS011;48526;48.846;2.322;2023-05-10T00:12:41;2.00;;;1.00;;
62479;SDS011;48526;48.846;2.322;2023-05-10T00:15:07;1.50;;;1.25;;
62479;SDS011;48526;48.846;2.322;2023-05-10T00:17:33;2.00;;;0.75;;
62479;SDS011;48526;48.846;2.322;2023-05-10T00:19:58;0.75;;;0.75;;
62479;SDS011;48526;48.846;2.322;2023-05-10T00:22:24;1.75;;;1.75;;
62479;SDS011;48526;48.846;2.322;2023-05-10T00:24:50;2.00;;;1.00;;
62479;SDS011;48526;48.846;2.322;2023-05-10T00:27:15;1.75;;;0.00;;
62479;SDS011;48526;48.846;2.322;2023-05-10T00:29:40;3.25;;;0.75;;
62479;SDS011;48526;48.846;2.322;2023-05-10T00:32:06;1.00;;;1.00;;
62479;SDS011;48526;48.846;2.322;2023-05-10T00:34:31;2.75;;;0.25;;
62479;SDS011;48526;48.846;2.322;2023-05-10T00:36:57;1.00;;;1.00;;
62479;SDS011;48526;48.846;2.322;2023-05-10T00:39:22;1.00;;;0.00;;
62479;SDS011;48526;48.846;2.322;2023-05-10T00:41:48;2.00;;;0.75;;
62479;SDS011;48526;48.846;2.322;2023-05-10T00:44:16;1.50;;;1.25;;
62479;SDS011;48526;48.846;2.322;2023-05-10T00:46:44;1.50;;;0.50;;
62479;SDS011;48526;48.846;2.322;2023-05-10T00:49:10;0.75;;;0.75;;
62479;SDS011;48526;48.846;2.322;2023-05-10T00:51:36;0.00;;;0.00;;
62479;SDS011;48526;48.846;2.322;2023-05-10T00:54:01;4.25;;;0.75;;
62479;SDS011;48526;48.846;2.322;2023-05-10T00:56:27;1.25;;;1.25;;
62479;SDS011;48526;48.846;2.322;2023-05-10T00:58:54;1.25;;;1.25;;
62479;SDS011;48526;48.846;2.322;2023-05-10T01:01:20;1.75;;;1.75;;
62479;SDS011;48526;48.846;2.322;2023-05-10T01:03:46;0.00;;;0.00;;
62479;SDS011;48526;48.846;2.322;2023-05-10T01:06:12;0.00;;;0.00;;
62479;SDS011;48526;48.846;2.322;2023-05-10T01:08:37;0.00;;;0.00;;
62479;SDS011;48526;48.846;2.322;2023-05-10T01:11:03;1.00;;;1.00;;
62479;SDS011;48526;48.846;2.322;2023-05-10T01:13:33;0.00;;;0.00;;
62479;SDS011;48526;48.846;2.322;2023-05-10T01:16:01;0.00;;;0.00;;
62479;SDS011;48526;48.846;2.322;2023-05-10T01:18:34;1.00;;;1.00;;
62479;SDS011;48526;48.846;2.322;2023-05-10T01:21:04;1.00;;;1.00;;
62479;SDS011;48526;48.846;2.322;2023-05-10T01:29:13;1.25;;;0.00;;
62479;SDS011;48526;48.846;2.322;2023-05-10T01:34:33;1.00;;;1.00;;
62479;SDS011;48526;48.846;2.322;2023-05-10T01:37:10;1.50;;;1.00;;
62479;SDS011;48526;48.846;2.322;2023-05-10T01:39:44;0.00;;;0.00;;
62479;SDS011;48526;48.846;2.322;2023-05-10T01:42:21;2.00;;;0.00;;
62479;SDS011;48526;48.846;2.322;2023-05-10T01:47:31;1.00;;;0.00;;
62479;SDS011;48526;48.846;2.322;2023-05-10T01:50:02;0.00;;;0.00;;
62479;SDS011;48526;48.846;2.322;2023-05-10T01:52:36;1.25;;;0.00;;
62479;SDS011;48526;48.846;2.322;2023-05-10T01:55:09;0.50;;;0.00;;
62479;SDS011;48526;48.846;2.322;2023-05-10T01:57:38;1.00;;;1.00;;
62479;SDS011;48526;48.846;2.322;2023-05-10T02:00:06;0.25;;;0.25;;
62479;SDS011;48526;48.846;2.322;2023-05-10T02:02:35;1.00;;;0.00;;
62479;SDS011;48526;48.846;2.322;2023-05-10T02:05:02;0.00;;;0.00;;
62479;SDS011;48526;48.846;2.322;2023-05-10T02:07:29;0.00;;;0.00;;
62479;SDS011;48526;48.846;2.322;2023-05-10T02:09:55;2.00;;;2.00;;
62479;SDS011;48526;48.846;2.322;2023-05-10T02:12:21;0.50;;;0.50;;
62479;SDS011;48526;48.846;2.322;2023-05-10T02:14:47;1.00;;;1.00;;
62479;SDS011;48526;48.846;2.322;2023-05-10T02:17:13;0.50;;;0.50;;
62479;SDS011;48526;48.846;2.322;2023-05-10T02:19:40;0.25;;;0.25;;
62479;SDS011;48526;48.846;2.322;2023-05-10T02:22:06;0.50;;;0.00;;
62479;SDS011;48526;48.846;2.322;2023-05-10T02:24:33;0.00;;;0.00;;
62479;SDS011;48526;48.846;2.322;2023-05-10T02:27:00;0.00;;;0.00;;
62479;SDS011;48526;48.846;2.322;2023-05-10T02:29:27;2.00;;;2.00;;
62479;SDS011;48526;48.846;2.322;2023-05-10T02:31:54;0.00;;;0.00;;
62479;SDS011;48526;48.846;2.322;2023-05-10T02:34:21;0.00;;;0.00;;
62479;SDS011;48526;48.846;2.322;2023-05-10T02:36:47;0.00;;;0.00;;
62479;SDS011;48526;48.846;2.322;2023-05-10T02:39:13;0.00;;;0.00;;
62479;SDS011;48526;48.846;2.322;2023-05-10T02:41:42;1.00;;;1.00;;
62479;SDS011;48526;48.846;2.322;2023-05-10T02:44:08;0.00;;;0.00;;
62479;SDS011;48526;48.846;2.322;2023-05-10T02:46:34;1.25;;;0.25;;
62479;SDS011;48526;48.846;2.322;2023-05-10T02:49:01;1.00;;;0.75;;
62479;SDS011;48526;48.846;2.322;2023-05-10T02:51:28;2.50;;;0.00;;
62479;SDS011;48526;48.846;2.322;2023-05-10T02:53:56;0.00;;;0.00;;
62479;SDS011;48526;48.846;2.322;2023-05-10T02:56:28;0.25;;;0.00;;
62479;SDS011;48526;48.846;2.322;2023-05-10T02:58:57;0.00;;;0.00;;
62479;SDS011;48526;48.846;2.322;2023-05-10T03:01:22;0.00;;;0.00;;
62479;SDS011;48526;48.846;2.322;2023-05-10T03:03:48;0.00;;;0.00;;
62479;SDS011;48526;48.846;2.322;2023-05-10T03:06:14;0.75;;;0.00;;
62479;SDS011;48526;48.846;2.322;2023-05-10T03:08:42;0.00;;;0.00;;
62479;SDS011;48526;48.846;2.322;2023-05-10T03:16:54;0.75;;;0.00;;
62479;SDS011;48526;48.846;2.322;2023-05-10T03:19:24;1.00;;;0.00;;
62479;SDS011;48526;48.846;2.322;2023-05-10T03:21:53;0.00;;;0.00;;
62479;SDS011;48526;48.846;2.322;2023-05-10T03:24:21;1.25;;;0.00;;
62479;SDS011;48526;48.846;2.322;2023-05-10T03:26:48;0.00;;;0.00;;
62479;SDS011;48526;48.846;2.322;2023-05-10T03:29:17;0.00;;;0.00;;
62479;SDS011;48526;48.846;2.322;2023-05-10T03:31:43;0.00;;;0.00;;
62479;SDS011;48526;48.846;2.322;2023-05-10T03:34:09;0.50;;;0.00;;
62479;SDS011;48526;48.846;2.322;2023-05-10T03:36:34;0.00;;;0.00;;
62479;SDS011;48526;48.846;2.322;2023-05-10T03:39:00;0.00;;;0.00;;
62479;SDS011;48526;48.846;2.322;2023-05-10T03:41:25;3.25;;;1.00;;
62479;SDS011;48526;48.846;2.322;2023-05-10T03:43:51;0.25;;;0.25;;
62479;SDS011;48526;48.846;2.322;2023-05-10T03:46:16;0.00;;;0.00;;
62479;SDS011;48526;48.846;2.322;2023-05-10T03:48:42;1.00;;;1.00;;
62479;SDS011;48526;48.846;2.322;2023-05-10T03:51:07;0.00;;;0.00;;
62479;SDS011;48526;48.846;2.322;2023-05-10T03:53:33;1.00;;;1.00;;
62479;SDS011;48526;48.846;2.322;2023-05-10T03:55:58;0.00;;;0.00;;
62479;SDS011;48526;48.846;2.322;2023-05-10T03:58:24;1.00;;;1.00;;
62479;SDS011;48526;48.846;2.322;2023-05-10T04:00:50;0.00;;;0.00;;
62479;SDS011;48526;48.846;2.322;2023-05-10T04:03:16;0.00;;;0.00;;
62479;SDS011;48526;48.846;2.322;2023-05-10T04:05:42;0.00;;;0.00;;
62479;SDS011;48526;48.846;2.322;2023-05-10T04:08:07;0.00;;;0.00;;
62479;SDS011;48526;48.846;2.322;2023-05-10T04:10:32;0.00;;;0.00;;
62479;SDS011;48526;48.846;2.322;2023-05-10T04:12:58;0.00;;;0.00;;
62479;SDS011;48526;48.846;2.322;2023-05-10T04:15:23;0.00;;;0.00;;
62479;SDS011;48526;48.846;2.322;2023-05-10T04:17:48;1.50;;;0.00;;
62479;SDS011;48526;48.846;2.322;2023-05-10T04:20:14;0.00;;;0.00;;
62479;SDS011;48526;48.846;2.322;2023-05-10T04:22:39;1.00;;;0.00;;
62479;SDS011;48526;48.846;2.322;2023-05-10T04:25:05;0.75;;;0.00;;
62479;SDS011;48526;48.846;2.322;2023-05-10T04:27:31;0.00;;;0.00;;
62479;SDS011;48526;48.846;2.322;2023-05-10T04:29:57;0.00;;;0.00;;
62479;SDS011;48526;48.846;2.322;2023-05-10T04:32:23;1.00;;;1.00;;
62479;SDS011;48526;48.846;2.322;2023-05-10T04:34:48;2.00;;;0.00;;
62479;SDS011;48526;48.846;2.322;2023-05-10T04:37:15;1.50;;;0.00;;
62479;SDS011;48526;48.846;2.322;2023-05-10T04:39:41;1.00;;;1.00;;
62479;SDS011;48526;48.846;2.322;2023-05-10T04:42:06;0.00;;;0.00;;
62479;SDS011;48526;48.846;2.322;2023-05-10T04:44:32;0.00;;;0.00;;
62479;SDS011;48526;48.846;2.322;2023-05-10T04:46:58;0.00;;;0.00;;
62479;SDS011;48526;48.846;2.322;2023-05-10T04:49:23;2.00;;;0.00;;
62479;SDS011;48526;48.846;2.322;2023-05-10T04:51:49;1.00;;;1.00;;
62479;SDS011;48526;48.846;2.322;2023-05-10T04:54:14;1.00;;;1.00;;
62479;SDS011;48526;48.846;2.322;2023-05-10T04:56:40;0.50;;;0.50;;
62479;SDS011;48526;48.846;2.322;2023-05-10T04:59:06;3.50;;;1.00;;
62479;SDS011;48526;48.846;2.322;2023-05-10T05:01:31;1.00;;;0.25;;
62479;SDS011;48526;48.846;2.322;2023-05-10T05:03:57;0.00;;;0.00;;
62479;SDS011;48526;48.846;2.322;2023-05-10T05:06:22;1.00;;;0.00;;
62479;SDS011;48526;48.846;2.322;2023-05-10T05:08:49;1.00;;;0.00;;
62479;SDS011;48526;48.846;2.322;2023-05-10T05:11:16;2.25;;;1.00;;
62479;SDS011;48526;48.846;2.322;2023-05-10T05:13:42;4.00;;;1.00;;
62479;SDS011;48526;48.846;2.322;2023-05-10T05:16:08;1.00;;;1.00;;
62479;SDS011;48526;48.846;2.322;2023-05-10T05:18:34;0.75;;;0.75;;
62479;SDS011;48526;48.846;2.322;2023-05-10T05:20:59;0.00;;;0.00;;
62479;SDS011;48526;48.846;2.322;2023-05-10T05:23:24;0.25;;;0.00;;
62479;SDS011;48526;48.846;2.322;2023-05-10T05:25:53;2.00;;;1.00;;
62479;SDS011;48526;48.846;2.322;2023-05-10T05:28:19;1.00;;;1.00;;
62479;SDS011;48526;48.846;2.322;2023-05-10T05:30:45;1.50;;;1.50;;
62479;SDS011;48526;48.846;2.322;2023-05-10T05:33:11;0.25;;;0.25;;
62479;SDS011;48526;48.846;2.322;2023-05-10T05:35:38;2.75;;;1.00;;
62479;SDS011;48526;48.846;2.322;2023-05-10T05:38:03;1.00;;;1.00;;
62479;SDS011;48526;48.846;2.322;2023-05-10T05:40:29;3.25;;;3.00;;
62479;SDS011;48526;48.846;2.322;2023-05-10T05:42:54;1.25;;;1.25;;
62479;SDS011;48526;48.846;2.322;2023-05-10T05:45:43;1.00;;;1.00;;
62479;SDS011;48526;48.846;2.322;2023-05-10T05:48:08;2.00;;;2.00;;
62479;SDS011;48526;48.846;2.322;2023-05-10T05:50:33;2.00;;;2.00;;
62479;SDS011;48526;48.846;2.322;2023-05-10T05:52:59;2.00;;;2.00;;
62479;SDS011;48526;48.846;2.322;2023-05-10T05:55:24;2.25;;;2.25;;
62479;SDS011;48526;48.846;2.322;2023-05-10T05:57:51;2.25;;;2.00;;
62479;SDS011;48526;48.846;2.322;2023-05-10T06:00:16;2.25;;;1.00;;
62479;SDS011;48526;48.846;2.322;2023-05-10T06:02:42;2.00;;;2.00;;
62479;SDS011;48526;48.846;2.322;2023-05-10T06:05:07;2.00;;;1.25;;
62479;SDS011;48526;48.846;2.322;2023-05-10T06:07:33;3.00;;;3.00;;
62479;SDS011;48526;48.846;2.322;2023-05-10T06:09:58;1.75;;;1.75;;
62479;SDS011;48526;48.846;2.322;2023-05-10T06:12:24;5.00;;;3.00;;
62479;SDS011;48526;48.846;2.322;2023-05-10T06:14:49;3.25;;;2.25;;
62479;SDS011;48526;48.846;2.322;2023-05-10T06:17:15;3.00;;;1.00;;
62479;SDS011;48526;48.846;2.322;2023-05-10T06:19:40;3.50;;;2.00;;
62479;SDS011;48526;48.846;2.322;2023-05-10T06:22:05;5.00;;;2.00;;
62479;SDS011;48526;48.846;2.322;2023-05-10T06:24:31;3.25;;;3.00;;
62479;SDS011;48526;48.846;2.322;2023-05-10T06:26:56;3.00;;;2.50;;
62479;SDS011;48526;48.846;2.322;2023-05-10T06:29:24;2.50;;;2.50;;
62479;SDS011;48526;48.846;2.322;2023-05-10T06:31:50;2.75;;;2.00;;
62479;SDS011;48526;48.846;2.322;2023-05-10T06:34:15;4.00;;;3.00;;
62479;SDS011;48526;48.846;2.322;2023-05-10T06:36:41;4.00;;;4.00;;
62479;SDS011;48526;48.846;2.322;2023-05-10T06:39:06;2.75;;;2.75;;
62479;SDS011;48526;48.846;2.322;2023-05-10T06:41:32;3.00;;;3.00;;
62479;SDS011;48526;48.846;2.322;2023-05-10T06:43:57;2.50;;;2.50;;
62479;SDS011;48526;48.846;2.322;2023-05-10T06:46:22;2.50;;;2.00;;
62479;SDS011;48526;48.846;2.322;2023-05-10T06:48:48;2.00;;;2.00;;
62479;SDS011;48526;48.846;2.322;2023-05-10T06:51:13;3.00;;;2.75;;
62479;SDS011;48526;48.846;2.322;2023-05-10T06:53:39;4.50;;;3.25;;
62479;SDS011;48526;48.846;2.322;2023-05-10T06:56:04;4.00;;;4.00;;
62479;SDS011;48526;48.846;2.322;2023-05-10T06:58:30;2.50;;;1.75;;
62479;SDS011;48526;48.846;2.322;2023-05-10T07:01:02;2.00;;;2.00;;
62479;SDS011;48526;48.846;2.322;2023-05-10T07:03:28;2.50;;;2.50;;
62479;SDS011;48526;48.846;2.322;2023-05-10T07:05:53;4.50;;;3.25;;
62479;SDS011;48526;48.846;2.322;2023-05-10T07:08:20;2.00;;;2.00;;
62479;SDS011;48526;48.846;2.322;2023-05-10T07:10:45;3.00;;;2.00;;
62479;SDS011;48526;48.846;2.322;2023-05-10T07:13:10;4.00;;;4.00;;
62479;SDS011;48526;48.846;2.322;2023-05-10T07:15:36;2.75;;;2.75;;
62479;SDS011;48526;48.846;2.322;2023-05-10T07:18:01;5.50;;;3.25;;
62479;SDS011;48526;48.846;2.322;2023-05-10T07:20:26;1.50;;;1.50;;
62479;SDS011;48526;48.846;2.322;2023-05-10T07:22:52;3.00;;;3.00;;
62479;SDS011;48526;48.846;2.322;2023-05-10T07:25:17;2.00;;;2.00;;
62479;SDS011;48526;48.846;2.322;2023-05-10T07:27:43;3.00;;;1.00;;
62479;SDS011;48526;48.846;2.322;2023-05-10T07:30:08;2.25;;;2.25;;
62479;SDS011;48526;48.846;2.322;2023-05-10T07:32:34;2.25;;;2.25;;
62479;SDS011;48526;48.846;2.322;2023-05-10T07:34:59;3.25;;;1.50;;
62479;SDS011;48526;48.846;2.322;2023-05-10T07:37:25;6.00;;;3.25;;
62479;SDS011;48526;48.846;2.322;2023-05-10T07:39:50;1.75;;;1.00;;
62479;SDS011;48526;48.846;2.322;2023-05-10T07:42:15;3.00;;;2.00;;
62479;SDS011;48526;48.846;2.322;2023-05-10T07:44:41;2.00;;;2.00;;
62479;SDS011;48526;48.846;2.322;2023-05-10T07:47:06;2.00;;;2.00;;
62479;SDS011;48526;48.846;2.322;2023-05-10T07:49:32;2.25;;;1.25;;
62479;SDS011;48526;48.846;2.322;2023-05-10T07:51:57;1.00;;;1.00;;
62479;SDS011;48526;48.846;2.322;2023-05-10T07:54:22;3.75;;;2.00;;
62479;SDS011;48526;48.846;2.322;2023-05-10T07:56:48;0.50;;;0.50;;
62479;SDS011;48526;48.846;2.322;2023-05-10T07:59:16;2.25;;;2.25;;
62479;SDS011;48526;48.846;2.322;2023-05-10T08:01:42;2.25;;;2.25;;
62479;SDS011;48526;48.846;2.322;2023-05-10T08:04:08;4.50;;;3.00;;
62479;SDS011;48526;48.846;2.322;2023-05-10T08:06:34;6.50;;;3.25;;
62479;SDS011;48526;48.846;2.322;2023-05-10T08:08:59;3.50;;;2.75;;
62479;SDS011;48526;48.846;2.322;2023-05-10T08:11:24;6.00;;;3.00;;
62479;SDS011;48526;48.846;2.322;2023-05-10T08:13:50;6.00;;;4.00;;
62479;SDS011;48526;48.846;2.322;2023-05-10T08:16:16;6.75;;;5.00;;
62479;SDS011;48526;48.846;2.322;2023-05-10T08:18:42;3.50;;;3.00;;
62479;SDS011;48526;48.846;2.322;2023-05-10T08:21:09;4.00;;;3.25;;
62479;SDS011;48526;48.846;2.322;2023-05-10T08:23:36;7.75;;;3.00;;
62479;SDS011;48526;48.846;2.322;2023-05-10T08:26:01;2.00;;;2.00;;
62479;SDS011;48526;48.846;2.322;2023-05-10T08:28:27;3.50;;;3.25;;
62479;SDS011;48526;48.846;2.322;2023-05-10T08:30:52;3.75;;;3.00;;
62479;SDS011;48526;48.846;2.322;2023-05-10T08:33:18;4.00;;;2.50;;
62479;SDS011;48526;48.846;2.322;2023-05-10T08:35:44;9.00;;;3.25;;
62479;SDS011;48526;48.846;2.322;2023-05-10T08:38:09;7.00;;;3.50;;
62479;SDS011;48526;48.846;2.322;2023-05-10T08:40:35;2.00;;;2.00;;
62479;SDS011;48526;48.846;2.322;2023-05-10T08:43:04;3.25;;;3.25;;
62479;SDS011;48526;48.846;2.322;2023-05-10T08:45:32;5.50;;;5.50;;
62479;SDS011;48526;48.846;2.322;2023-05-10T08:48:02;3.00;;;3.00;;
62479;SDS011;48526;48.846;2.322;2023-05-10T08:50:27;8.00;;;7.00;;
62479;SDS011;48526;48.846;2.322;2023-05-10T08:52:53;7.00;;;4.50;;
62479;SDS011;48526;48.846;2.322;2023-05-10T08:55:20;4.00;;;4.00;;
62479;SDS011;48526;48.846;2.322;2023-05-10T08:57:48;4.25;;;3.00;;
62479;SDS011;48526;48.846;2.322;2023-05-10T09:00:14;6.25;;;3.00;;
62479;SDS011;48526;48.846;2.322;2023-05-10T09:02:39;4.75;;;4.00;;
62479;SDS011;48526;48.846;2.322;2023-05-10T09:05:06;9.00;;;8.00;;
62479;SDS011;48526;48.846;2.322;2023-05-10T09:07:32;41.25;;;32.75;;
62479;SDS011;48526;48.846;2.322;2023-05-10T09:09:57;9.50;;;8.00;;
62479;SDS011;48526;48.846;2.322;2023-05-10T09:12:23;9.25;;;7.00;;
62479;SDS011;48526;48.846;2.322;2023-05-10T09:14:48;8.00;;;5.00;;
62479;SDS011;48526;48.846;2.322;2023-05-10T09:17:14;7.00;;;3.50;;
62479;SDS011;48526;48.846;2.322;2023-05-10T09:19:40;7.00;;;5.00;;
62479;SDS011;48526;48.846;2.322;2023-05-10T09:22:05;7.00;;;4.75;;
62479;SDS011;48526;48.846;2.322;2023-05-10T09:24:30;9.00;;;8.00;;
62479;SDS011;48526;48.846;2.322;2023-05-10T09:26:56;6.75;;;5.75;;
62479;SDS011;48526;48.846;2.322;2023-05-10T09:29:22;7.00;;;4.75;;
62479;SDS011;48526;48.846;2.322;2023-05-10T09:31:51;9.75;;;9.00;;
62479;SDS011;48526;48.846;2.322;2023-05-10T09:34:20;9.25;;;7.50;;
62479;SDS011;48526;48.846;2.322;2023-05-10T09:36:54;9.00;;;9.00;;
62479;SDS011;48526;48.846;2.322;2023-05-10T09:39:28;10.00;;;4.00;;
62479;SDS011;48526;48.846;2.322;2023-05-10T09:41:57;9.50;;;6.25;;
62479;SDS011;48526;48.846;2.322;2023-05-10T09:44:25;5.50;;;4.00;;
62479;SDS011;48526;48.846;2.322;2023-05-10T09:46:51;10.50;;;6.25;;
62479;SDS011;48526;48.846;2.322;2023-05-10T09:49:17;9.50;;;8.00;;
62479;SDS011;48526;48.846;2.322;2023-05-10T09:51:43;8.75;;;7.00;;
62479;SDS011;48526;48.846;2.322;2023-05-10T09:54:13;12.00;;;10.00;;
62479;SDS011;48526;48.846;2.322;2023-05-10T09:56:39;11.25;;;8.50;;
62479;SDS011;48526;48.846;2.322;2023-05-10T09:59:06;11.50;;;8.25;;
62479;SDS011;48526;48.846;2.322;2023-05-10T10:01:33;8.50;;;6.00;;
62479;SDS011;48526;48.846;2.322;2023-05-10T10:03:59;11.25;;;9.50;;
62479;SDS011;48526;48.846;2.322;2023-05-10T10:06:28;5.75;;;5.00;;
62479;SDS011;48526;48.846;2.322;2023-05-10T10:11:03;8.00;;;4.50;;
62479;SDS011;48526;48.846;2.322;2023-05-10T10:13:28;8.50;;;5.00;;
62479;SDS011;48526;48.846;2.322;2023-05-10T10:15:54;8.00;;;6.50;;
62479;SDS011;48526;48.846;2.322;2023-05-10T10:18:20;10.00;;;7.00;;
62479;SDS011;48526;48.846;2.322;2023-05-10T10:20:48;10.00;;;5.75;;
62479;SDS011;48526;48.846;2.322;2023-05-10T10:23:14;9.75;;;8.25;;
62479;SDS011;48526;48.846;2.322;2023-05-10T10:25:40;9.50;;;7.50;;
62479;SDS011;48526;48.846;2.322;2023-05-10T10:28:08;20.50;;;11.25;;
62479;SDS011;48526;48.846;2.322;2023-05-10T10:35:53;12.75;;;10.25;;
62479;SDS011;48526;48.846;2.322;2023-05-10T10:38:19;12.00;;;10.25;;
62479;SDS011;48526;48.846;2.322;2023-05-10T10:40:45;10.50;;;9.25;;
62479;SDS011;48526;48.846;2.322;2023-05-10T10:43:26;13.50;;;11.75;;
62479;SDS011;48526;48.846;2.322;2023-05-10T10:48:38;14.75;;;9.00;;
62479;SDS011;48526;48.846;2.322;2023-05-10T10:51:03;13.00;;;9.00;;
62479;SDS011;48526;48.846;2.322;2023-05-10T10:53:29;8.50;;;5.25;;
62479;SDS011;48526;48.846;2.322;2023-05-10T10:58:49;11.00;;;8.00;;
62479;SDS011;48526;48.846;2.322;2023-05-10T11:01:18;13.00;;;10.00;;
62479;SDS011;48526;48.846;2.322;2023-05-10T11:06:34;5.75;;;2.25;;
62479;SDS011;48526;48.846;2.322;2023-05-10T11:09:10;11.75;;;8.25;;
62479;SDS011;48526;48.846;2.322;2023-05-10T11:11:48;8.00;;;5.50;;
62479;SDS011;48526;48.846;2.322;2023-05-10T11:14:14;7.00;;;4.00;;
62479;SDS011;48526;48.846;2.322;2023-05-10T11:16:45;7.75;;;5.00;;
62479;SDS011;48526;48.846;2.322;2023-05-10T11:19:11;11.00;;;5.00;;
62479;SDS011;48526;48.846;2.322;2023-05-10T11:24:17;11.00;;;8.00;;
62479;SDS011;48526;48.846;2.322;2023-05-10T11:26:44;10.50;;;7.25;;
62479;SDS011;48526;48.846;2.322;2023-05-10T11:29:09;5.50;;;4.00;;
62479;SDS011;48526;48.846;2.322;2023-05-10T11:31:35;8.00;;;7.00;;
62479;SDS011;48526;48.846;2.322;2023-05-10T11:34:00;4.25;;;4.00;;
62479;SDS011;48526;48.846;2.322;2023-05-10T11:36:32;9.50;;;7.25;;
62479;SDS011;48526;48.846;2.322;2023-05-10T11:38:58;5.00;;;4.50;;
62479;SDS011;48526;48.846;2.322;2023-05-10T11:41:24;6.50;;;5.75;;
62479;SDS011;48526;48.846;2.322;2023-05-10T11:43:50;8.00;;;5.00;;
62479;SDS011;48526;48.846;2.322;2023-05-10T11:46:23;10.00;;;7.25;;
62479;SDS011;48526;48.846;2.322;2023-05-10T11:48:50;9.00;;;4.25;;
62479;SDS011;48526;48.846;2.322;2023-05-10T11:51:21;6.00;;;6.00;;
62479;SDS011;48526;48.846;2.322;2023-05-10T11:53:48;5.75;;;5.00;;
62479;SDS011;48526;48.846;2.322;2023-05-10T11:56:15;8.50;;;5.50;;
62479;SDS011;48526;48.846;2.322;2023-05-10T11:58:40;10.50;;;8.50;;
62479;SDS011;48526;48.846;2.322;2023-05-10T12:01:06;9.00;;;7.00;;
62479;SDS011;48526;48.846;2.322;2023-05-10T12:03:32;7.00;;;7.00;;
62479;SDS011;48526;48.846;2.322;2023-05-10T12:05:58;5.00;;;4.50;;
62479;SDS011;48526;48.846;2.322;2023-05-10T12:08:25;8.75;;;5.00;;
62479;SDS011;48526;48.846;2.322;2023-05-10T12:10:52;4.25;;;4.25;;
62479;SDS011;48526;48.846;2.322;2023-05-10T12:13:18;10.00;;;7.00;;
62479;SDS011;48526;48.846;2.322;2023-05-10T12:15:45;7.75;;;6.50;;
62479;SDS011;48526;48.846;2.322;2023-05-10T12:18:11;6.75;;;5.00;;
62479;SDS011;48526;48.846;2.322;2023-05-10T12:20:37;5.25;;;4.50;;
62479;SDS011;48526;48.846;2.322;2023-05-10T12:23:03;8.25;;;5.50;;
62479;SDS011;48526;48.846;2.322;2023-05-10T12:25:31;6.75;;;5.50;;
62479;SDS011;48526;48.846;2.322;2023-05-10T12:28:02;9.50;;;5.50;;
62479;SDS011;48526;48.846;2.322;2023-05-10T12:30:29;6.75;;;5.75;;
62479;SDS011;48526;48.846;2.322;2023-05-10T12:33:08;6.00;;;6.00;;
62479;SDS011;48526;48.846;2.322;2023-05-10T12:35:49;6.00;;;5.00;;
62479;SDS011;48526;48.846;2.322;2023-05-10T12:38:32;5.00;;;4.00;;
62479;SDS011;48526;48.846;2.322;2023-05-10T12:41:03;5.75;;;5.00;;
62479;SDS011;48526;48.846;2.322;2023-05-10T12:43:30;4.00;;;3.25;;
62479;SDS011;48526;48.846;2.322;2023-05-10T12:45:56;8.00;;;6.50;;
62479;SDS011;48526;48.846;2.322;2023-05-10T12:48:21;4.00;;;4.00;;
62479;SDS011;48526;48.846;2.322;2023-05-10T12:50:47;10.75;;;4.50;;
62479;SDS011;48526;48.846;2.322;2023-05-10T12:53:13;6.00;;;6.00;;
62479;SDS011;48526;48.846;2.322;2023-05-10T12:55:40;8.00;;;6.25;;
62479;SDS011;48526;48.846;2.322;2023-05-10T12:58:09;4.25;;;4.25;;
62479;SDS011;48526;48.846;2.322;2023-05-10T13:00:34;4.75;;;3.50;;
62479;SDS011;48526;48.846;2.322;2023-05-10T13:03:00;6.25;;;5.00;;
62479;SDS011;48526;48.846;2.322;2023-05-10T13:05:25;4.50;;;4.00;;
62479;SDS011;48526;48.846;2.322;2023-05-10T13:07:51;4.00;;;3.00;;
62479;SDS011;48526;48.846;2.322;2023-05-10T13:10:16;4.00;;;4.00;;
62479;SDS011;48526;48.846;2.322;2023-05-10T13:12:42;4.00;;;4.00;;
62479;SDS011;48526;48.846;2.322;2023-05-10T13:15:07;5.00;;;3.25;;
62479;SDS011;48526;48.846;2.322;2023-05-10T13:17:33;3.75;;;3.00;;
62479;SDS011;48526;48.846;2.322;2023-05-10T13:19:58;4.75;;;3.25;;
62479;SDS011;48526;48.846;2.322;2023-05-10T13:22:24;4.00;;;3.75;;
62479;SDS011;48526;48.846;2.322;2023-05-10T13:24:49;5.00;;;5.00;;
62479;SDS011;48526;48.846;2.322;2023-05-10T13:27:14;4.25;;;4.25;;
62479;SDS011;48526;48.846;2.322;2023-05-10T13:29:40;3.50;;;2.00;;
62479;SDS011;48526;48.846;2.322;2023-05-10T13:32:05;6.25;;;3.00;;
62479;SDS011;48526;48.846;2.322;2023-05-10T13:34:31;6.00;;;5.00;;
62479;SDS011;48526;48.846;2.322;2023-05-10T13:36:57;5.75;;;5.00;;
62479;SDS011;48526;48.846;2.322;2023-05-10T13:39:22;5.75;;;5.75;;
62479;SDS011;48526;48.846;2.322;2023-05-10T13:41:48;5.75;;;5.75;;
62479;SDS011;48526;48.846;2.322;2023-05-10T13:44:13;5.75;;;4.00;;
62479;SDS011;48526;48.846;2.322;2023-05-10T13:46:39;6.25;;;4.50;;
62479;SDS011;48526;48.846;2.322;2023-05-10T13:49:05;6.00;;;5.25;;
62479;SDS011;48526;48.846;2.322;2023-05-10T13:51:31;7.75;;;5.50;;
62479;SDS011;48526;48.846;2.322;2023-05-10T13:53:57;7.50;;;6.00;;
62479;SDS011;48526;48.846;2.322;2023-05-10T13:56:22;4.00;;;4.00;;
62479;SDS011;48526;48.846;2.322;2023-05-10T13:58:48;5.75;;;5.00;;
62479;SDS011;48526;48.846;2.322;2023-05-10T14:01:13;7.75;;;6.00;;
62479;SDS011;48526;48.846;2.322;2023-05-10T14:03:39;5.75;;;4.75;;
62479;SDS011;48526;48.846;2.322;2023-05-10T14:06:04;8.50;;;6.00;;
62479;SDS011;48526;48.846;2.322;2023-05-10T14:08:30;9.00;;;6.00;;
62479;SDS011;48526;48.846;2.322;2023-05-10T14:10:55;6.00;;;6.00;;
62479;SDS011;48526;48.846;2.322;2023-05-10T14:13:21;5.00;;;5.00;;
62479;SDS011;48526;48.846;2.322;2023-05-10T14:15:47;5.25;;;5.00;;
62479;SDS011;48526;48.846;2.322;2023-05-10T14:18:12;6.00;;;5.50;;
62479;SDS011;48526;48.846;2.322;2023-05-10T14:20:38;3.00;;;3.00;;
62479;SDS011;48526;48.846;2.322;2023-05-10T14:23:03;6.75;;;6.00;;
62479;SDS011;48526;48.846;2.322;2023-05-10T14:25:28;4.00;;;3.50;;
62479;SDS011;48526;48.846;2.322;2023-05-10T14:27:54;4.75;;;4.75;;
62479;SDS011;48526;48.846;2.322;2023-05-10T14:30:19;4.50;;;4.00;;
62479;SDS011;48526;48.846;2.322;2023-05-10T14:32:45;4.75;;;4.75;;
62479;SDS011;48526;48.846;2.322;2023-05-10T14:35:10;4.00;;;4.00;;
62479;SDS011;48526;48.846;2.322;2023-05-10T14:37:37;4.75;;;2.75;;
62479;SDS011;48526;48.846;2.322;2023-05-10T14:40:03;5.25;;;4.00;;
62479;SDS011;48526;48.846;2.322;2023-05-10T14:42:29;5.50;;;4.25;;
62479;SDS011;48526;48.846;2.322;2023-05-10T14:44:54;4.50;;;3.25;;
62479;SDS011;48526;48.846;2.322;2023-05-10T14:47:20;2.50;;;2.25;;
62479;SDS011;48526;48.846;2.322;2023-05-10T14:49:45;3.25;;;3.00;;
62479;SDS011;48526;48.846;2.322;2023-05-10T14:52:10;2.00;;;2.00;;
62479;SDS011;48526;48.846;2.322;2023-05-10T14:54:37;10.75;;;5.75;;
62479;SDS011;48526;48.846;2.322;2023-05-10T14:57:02;6.50;;;5.00;;
62479;SDS011;48526;48.846;2.322;2023-05-10T14:59:28;2.00;;;2.00;;
62479;SDS011;48526;48.846;2.322;2023-05-10T15:01:53;4.00;;;3.00;;
62479;SDS011;48526;48.846;2.322;2023-05-10T15:04:18;4.00;;;3.75;;
62479;SDS011;48526;48.846;2.322;2023-05-10T15:06:44;6.25;;;5.25;;
62479;SDS011;48526;48.846;2.322;2023-05-10T15:09:09;2.25;;;2.00;;
62479;SDS011;48526;48.846;2.322;2023-05-10T15:11:35;3.00;;;3.00;;
62479;SDS011;48526;48.846;2.322;2023-05-10T15:14:00;3.50;;;3.00;;
62479;SDS011;48526;48.846;2.322;2023-05-10T15:16:26;2.00;;;2.00;;